Portada
METAR-TAF:

METAR-TAF

Aeropuertos :

Aeropuerto de Toulouse-Blagnac

Toulouse, Francia

latitud: 43-38N, longitud: 001-22E, altitud: 152 m

Observación

El informe se hizo hace 29 minutos, a las 17:00 UTC
Viento 9 kt del norte-noroeste
Temperatura 19°C
Humedad 64%
Presión 1026 hPa
Visibilidad 10 km o más
Escasas nubes a una altura de 3300 ft
Cielo cubierto a una altura de 5600 ft

METAR: LFBO 261700Z AUTO 34009KT 9999 FEW033 OVC056 19/12 Q1026 BECMG 28010KT

Hora: 19:29 (17:29 UTC)

Pronóstico

El informe se hizo hace 6 horas y 29 minutos, a las 11:00 UTC
Pronóstico válido del 26 a las 12 UTC al 27 a las 18 UTC
Viento 10 kt del oeste
Visibilidad 10 km o más
Cielo nuboso a una altura de 3300 ft
Evolucionando progresivamente
del 27 a las 05 UTC al 27 a las 07 UTC
Visibilidad 10 km o más
sin nubes por debajo de 1500 m y sin presencia de cumulonimbus.

TAF: LFBO 261100Z 2612/2718 28010KT 9999 BKN033 BECMG 2705/2707 CAVOK

Observaciones y pronósticos meteorológicos de más de 4000 aeropuertos (mensajes METAR y TAF).

Los puntos amarillos y rojos representan las estaciones disponibles.

Ponga el ratón en el punto deseado para ver el nombre de la estación.

Haga clic para ver las observaciones y los pronósticos meteorológicos.

Para cambiar el mapa : haga clic en los botones verdes con una cruz de color negro para hacer un zoom, en el botón verde con un guión para alejar o en las flechas verdes para mapas adyacentes.


METAR-TAF: